עמוד ראשי
METAR-TAF:

שדות תעופה :

זלצבורג, אוסטריה

קו רוחב: 47-48N, קו אורך: 013-00E, גובה: 430מטר

תצפית מזג אוויר נוכחית

הדו"ח נערך לפני 17דקות, בשעה 20:50 UTC
רוח 5קשר מכיוון דרום/דרום-מזרח
טמפרטורת -1 צלסיוס
לחות 93%
לחץ 1007 hPa
ראות 10 קילומטר או יותר
ללא עננים שבסיסם נמוך מ 5000 רגל או קומולונימבוס

METAR: LOWS 112050Z 16005KT CAVOK M01/M02 Q1007 NOSIG

זמן: 22:07 (21:07 UTC)

תחזית

הדו"ח נערך לפני 3 שעות ו 52דקות, בשעה 17:15 UTC
תחזית בתוקף מ 11 ב 18 UTC עד 12 ב 18 UTC
רוח 6קשר מכיוון דרום/דרום-מזרח
ראות 10 קילומטר או יותר
ללא עננים שבסיסם נמוך מ 5000 רגל או קומולונימבוס

TAF: LOWS 111715Z 1118/1218 15006KT CAVOK TX06/1212Z TNM03/1205Z

METAR-TAF

תצפיות ותחזיות מזג אוויר לגבי יותר מ- 4,000 שדות תעופה ברחבי העולם. דוחות METAR ו- TAF.

התחנות הזמינות מסומנות בנקודות צהובות ואדומות על גבי המפה.

העבר את העכבר לנקודה הצבעונית על מנת לראות את שם התחנה.

לאחר מכן, לחץ כדי לראות את תוכן ואת תחזיות מזג האוויר.

כדי לשנות את המפה: לחץ על הכפתורים הירוקים עם הפלוס השחור כדי להתקרב; על הכפתור הירוק עם המקף כדי להתרחק; או בחיצים הירוקים למפות סמוכות.


METAR-TAF: